Terminal Aerodrome Forecast
Issued by NWS

Home | Current Version | Previous Version | Text Only | Print | Product List | Glossary On
Versions: 1 2 3 4 5 6 7 8 9 10 11 12 13
000
FTUS44 KOUN 250520
TAFLAW
TAF
KLAW 250520Z 2506/2606 13006KT 4SM BR SCT020 OVC050
     FM251300 VRB04KT 5SM -TSRA OVC025CB
     FM252000 02015G21KT 5SM BR OVC025
      TEMPO 2520/2524 4SM -RA BR
     FM260300 02011KT P6SM OVC050=

USA.gov is the U.S. government's official web portal to all federal, state and local government web resources and services.